sensor_id;sensor_type;location;lat;lon;timestamp;temperature;humidity
79467;SHT30;68933;49.726;9.226;2023-07-13T00:00:28;22.9;43
79467;SHT30;68933;49.726;9.226;2023-07-13T00:02:41;22.8;45
79467;SHT30;68933;49.726;9.226;2023-07-13T00:04:54;22.8;45
79467;SHT30;68933;49.726;9.226;2023-07-13T00:07:07;22.8;45
79467;SHT30;68933;49.726;9.226;2023-07-13T00:09:20;22.8;45
79467;SHT30;68933;49.726;9.226;2023-07-13T00:11:33;22.8;45
79467;SHT30;68933;49.726;9.226;2023-07-13T00:13:45;22.6;45
79467;SHT30;68933;49.726;9.226;2023-07-13T00:15:59;22.6;45
79467;SHT30;68933;49.726;9.226;2023-07-13T00:18:11;22.6;45
79467;SHT30;68933;49.726;9.226;2023-07-13T00:20:25;22.5;45
79467;SHT30;68933;49.726;9.226;2023-07-13T00:22:38;22.5;45
79467;SHT30;68933;49.726;9.226;2023-07-13T00:24:51;22.4;45
79467;SHT30;68933;49.726;9.226;2023-07-13T00:27:04;22.4;45
79467;SHT30;68933;49.726;9.226;2023-07-13T00:29:17;22.4;45
79467;SHT30;68933;49.726;9.226;2023-07-13T00:31:30;22.4;45
79467;SHT30;68933;49.726;9.226;2023-07-13T00:33:42;22.4;45
79467;SHT30;68933;49.726;9.226;2023-07-13T00:35:56;22.2;45
79467;SHT30;68933;49.726;9.226;2023-07-13T00:38:08;22.2;45
79467;SHT30;68933;49.726;9.226;2023-07-13T00:40:22;22.2;45
79467;SHT30;68933;49.726;9.226;2023-07-13T00:42:34;22.2;45
79467;SHT30;68933;49.726;9.226;2023-07-13T00:47:01;22;45
79467;SHT30;68933;49.726;9.226;2023-07-13T00:49:16;22;45
79467;SHT30;68933;49.726;9.226;2023-07-13T00:51:28;21.9;45
79467;SHT30;68933;49.726;9.226;2023-07-13T00:53:40;21.9;45
79467;SHT30;68933;49.726;9.226;2023-07-13T00:55:53;21.9;45
79467;SHT30;68933;49.726;9.226;2023-07-13T00:58:06;21.8;45
79467;SHT30;68933;49.726;9.226;2023-07-13T01:00:18;21.8;45
79467;SHT30;68933;49.726;9.226;2023-07-13T01:02:32;21.8;45
79467;SHT30;68933;49.726;9.226;2023-07-13T01:04:45;21.8;45
79467;SHT30;68933;49.726;9.226;2023-07-13T01:06:58;21.6;46
79467;SHT30;68933;49.726;9.226;2023-07-13T01:09:11;21.6;46
79467;SHT30;68933;49.726;9.226;2023-07-13T01:11:23;21.6;46
79467;SHT30;68933;49.726;9.226;2023-07-13T01:13:37;21.6;46
79467;SHT30;68933;49.726;9.226;2023-07-13T01:15:50;21.6;46
79467;SHT30;68933;49.726;9.226;2023-07-13T01:18:03;21.5;46
79467;SHT30;68933;49.726;9.226;2023-07-13T01:20:16;21.5;46
79467;SHT30;68933;49.726;9.226;2023-07-13T01:22:29;21.5;46
79467;SHT30;68933;49.726;9.226;2023-07-13T01:24:43;21.5;46
79467;SHT30;68933;49.726;9.226;2023-07-13T01:26:54;21.5;46
79467;SHT30;68933;49.726;9.226;2023-07-13T01:29:07;21.4;46
79467;SHT30;68933;49.726;9.226;2023-07-13T01:31:20;21.4;46
79467;SHT30;68933;49.726;9.226;2023-07-13T01:33:33;21.4;46
79467;SHT30;68933;49.726;9.226;2023-07-13T01:35:47;21.4;46
79467;SHT30;68933;49.726;9.226;2023-07-13T01:38:00;21.4;46
79467;SHT30;68933;49.726;9.226;2023-07-13T01:40:13;21.4;46
79467;SHT30;68933;49.726;9.226;2023-07-13T01:42:25;21.4;46
79467;SHT30;68933;49.726;9.226;2023-07-13T01:44:38;21.3;46
79467;SHT30;68933;49.726;9.226;2023-07-13T01:46:52;21.3;46
79467;SHT30;68933;49.726;9.226;2023-07-13T01:49:05;21.3;47
79467;SHT30;68933;49.726;9.226;2023-07-13T01:51:18;21.3;47
79467;SHT30;68933;49.726;9.226;2023-07-13T01:53:31;21.1;47
79467;SHT30;68933;49.726;9.226;2023-07-13T01:55:44;21.1;47
79467;SHT30;68933;49.726;9.226;2023-07-13T01:57:56;21.1;47
79467;SHT30;68933;49.726;9.226;2023-07-13T02:00:11;21;47
79467;SHT30;68933;49.726;9.226;2023-07-13T02:02:23;21;47
79467;SHT30;68933;49.726;9.226;2023-07-13T02:04:35;20.9;47
79467;SHT30;68933;49.726;9.226;2023-07-13T02:06:49;20.9;47
79467;SHT30;68933;49.726;9.226;2023-07-13T02:09:02;20.8;47
79467;SHT30;68933;49.726;9.226;2023-07-13T02:11:15;20.8;47
79467;SHT30;68933;49.726;9.226;2023-07-13T02:13:27;20.7;49
79467;SHT30;68933;49.726;9.226;2023-07-13T02:15:41;20.7;49
79467;SHT30;68933;49.726;9.226;2023-07-13T02:17:54;20.6;49
79467;SHT30;68933;49.726;9.226;2023-07-13T02:20:07;20.6;49
79467;SHT30;68933;49.726;9.226;2023-07-13T02:22:20;20.6;49
79467;SHT30;68933;49.726;9.226;2023-07-13T02:24:33;20.4;49
79467;SHT30;68933;49.726;9.226;2023-07-13T02:26:46;20.4;49
79467;SHT30;68933;49.726;9.226;2023-07-13T02:28:58;20.3;49
79467;SHT30;68933;49.726;9.226;2023-07-13T02:31:12;20.3;49
79467;SHT30;68933;49.726;9.226;2023-07-13T02:33:24;20.2;49
79467;SHT30;68933;49.726;9.226;2023-07-13T02:35:38;20.2;49
79467;SHT30;68933;49.726;9.226;2023-07-13T02:37:51;20.1;50
79467;SHT30;68933;49.726;9.226;2023-07-13T02:40:04;20.1;50
79467;SHT30;68933;49.726;9.226;2023-07-13T02:42:17;20.1;50
79467;SHT30;68933;49.726;9.226;2023-07-13T02:44:29;20;50
79467;SHT30;68933;49.726;9.226;2023-07-13T02:46:43;20;50
79467;SHT30;68933;49.726;9.226;2023-07-13T02:48:55;20;51
79467;SHT30;68933;49.726;9.226;2023-07-13T02:51:09;20;51
79467;SHT30;68933;49.726;9.226;2023-07-13T02:53:22;19.9;51
79467;SHT30;68933;49.726;9.226;2023-07-13T02:55:35;19.9;51
79467;SHT30;68933;49.726;9.226;2023-07-13T02:57:48;19.8;51
79467;SHT30;68933;49.726;9.226;2023-07-13T03:00:01;19.8;51
79467;SHT30;68933;49.726;9.226;2023-07-13T03:02:13;19.7;51
79467;SHT30;68933;49.726;9.226;2023-07-13T03:04:26;19.7;51
79467;SHT30;68933;49.726;9.226;2023-07-13T03:06:39;19.6;51
79467;SHT30;68933;49.726;9.226;2023-07-13T03:08:52;19.6;51
79467;SHT30;68933;49.726;9.226;2023-07-13T03:11:06;19.6;51
79467;SHT30;68933;49.726;9.226;2023-07-13T03:13:18;19.6;51
79467;SHT30;68933;49.726;9.226;2023-07-13T03:15:32;19.6;51
79467;SHT30;68933;49.726;9.226;2023-07-13T03:17:45;19.5;51
79467;SHT30;68933;49.726;9.226;2023-07-13T03:19:57;19.5;51
79467;SHT30;68933;49.726;9.226;2023-07-13T03:22:10;19.5;51
79467;SHT30;68933;49.726;9.226;2023-07-13T03:24:24;19.4;51
79467;SHT30;68933;49.726;9.226;2023-07-13T03:26:37;19.4;51
79467;SHT30;68933;49.726;9.226;2023-07-13T03:28:50;19.3;51
79467;SHT30;68933;49.726;9.226;2023-07-13T03:31:03;19.3;51
79467;SHT30;68933;49.726;9.226;2023-07-13T03:33:15;19.3;51
79467;SHT30;68933;49.726;9.226;2023-07-13T03:35:28;19.2;51
79467;SHT30;68933;49.726;9.226;2023-07-13T03:37:42;19.2;51
79467;SHT30;68933;49.726;9.226;2023-07-13T03:39:54;19.1;53
79467;SHT30;68933;49.726;9.226;2023-07-13T03:42:08;19.1;53
79467;SHT30;68933;49.726;9.226;2023-07-13T03:44:21;19.1;53
79467;SHT30;68933;49.726;9.226;2023-07-13T03:46:34;19.1;53
79467;SHT30;68933;49.726;9.226;2023-07-13T03:48:47;19.1;53
79467;SHT30;68933;49.726;9.226;2023-07-13T03:51:00;19;53
79467;SHT30;68933;49.726;9.226;2023-07-13T03:53:12;19;53
79467;SHT30;68933;49.726;9.226;2023-07-13T03:55:25;19;54
79467;SHT30;68933;49.726;9.226;2023-07-13T03:57:39;19;54
79467;SHT30;68933;49.726;9.226;2023-07-13T03:59:51;19;54
79467;SHT30;68933;49.726;9.226;2023-07-13T04:02:05;19;54
79467;SHT30;68933;49.726;9.226;2023-07-13T04:04:17;19;54
79467;SHT30;68933;49.726;9.226;2023-07-13T04:06:31;18.9;54
79467;SHT30;68933;49.726;9.226;2023-07-13T04:08:44;18.9;54
79467;SHT30;68933;49.726;9.226;2023-07-13T04:10:57;18.8;54
79467;SHT30;68933;49.726;9.226;2023-07-13T04:13:10;18.8;54
79467;SHT30;68933;49.726;9.226;2023-07-13T04:15:22;18.8;54
79467;SHT30;68933;49.726;9.226;2023-07-13T04:17:36;18.8;54
79467;SHT30;68933;49.726;9.226;2023-07-13T04:19:49;18.8;54
79467;SHT30;68933;49.726;9.226;2023-07-13T04:22:02;18.8;54
79467;SHT30;68933;49.726;9.226;2023-07-13T04:24:15;18.8;54
79467;SHT30;68933;49.726;9.226;2023-07-13T04:26:28;18.7;55
79467;SHT30;68933;49.726;9.226;2023-07-13T04:28:41;18.7;55
79467;SHT30;68933;49.726;9.226;2023-07-13T04:30:54;18.7;55
79467;SHT30;68933;49.726;9.226;2023-07-13T04:33:06;18.7;55
79467;SHT30;68933;49.726;9.226;2023-07-13T04:35:20;18.7;55
79467;SHT30;68933;49.726;9.226;2023-07-13T04:37:33;18.7;55
79467;SHT30;68933;49.726;9.226;2023-07-13T04:39:45;18.7;55
79467;SHT30;68933;49.726;9.226;2023-07-13T04:41:58;18.7;55
79467;SHT30;68933;49.726;9.226;2023-07-13T04:44:12;18.7;55
79467;SHT30;68933;49.726;9.226;2023-07-13T04:46:25;18.7;55
79467;SHT30;68933;49.726;9.226;2023-07-13T04:48:37;18.7;55
79467;SHT30;68933;49.726;9.226;2023-07-13T04:50:54;18.7;55
79467;SHT30;68933;49.726;9.226;2023-07-13T04:53:04;18.6;57
79467;SHT30;68933;49.726;9.226;2023-07-13T04:55:17;18.6;57
79467;SHT30;68933;49.726;9.226;2023-07-13T04:57:29;18.6;57
79467;SHT30;68933;49.726;9.226;2023-07-13T04:59:43;18.6;57
79467;SHT30;68933;49.726;9.226;2023-07-13T05:01:56;18.6;57
79467;SHT30;68933;49.726;9.226;2023-07-13T05:04:09;18.6;57
79467;SHT30;68933;49.726;9.226;2023-07-13T05:06:22;18.6;57
79467;SHT30;68933;49.726;9.226;2023-07-13T05:08:35;18.6;57
79467;SHT30;68933;49.726;9.226;2023-07-13T05:10:47;18.6;57
79467;SHT30;68933;49.726;9.226;2023-07-13T05:13:00;18.7;55
79467;SHT30;68933;49.726;9.226;2023-07-13T05:15:14;18.7;55
79467;SHT30;68933;49.726;9.226;2023-07-13T05:17:27;18.8;55
79467;SHT30;68933;49.726;9.226;2023-07-13T05:19:40;18.8;55
79467;SHT30;68933;49.726;9.226;2023-07-13T05:21:52;18.8;57
79467;SHT30;68933;49.726;9.226;2023-07-13T05:24:05;18.8;57
79467;SHT30;68933;49.726;9.226;2023-07-13T05:26:19;18.8;57
79467;SHT30;68933;49.726;9.226;2023-07-13T05:28:32;18.8;57
79467;SHT30;68933;49.726;9.226;2023-07-13T05:30:45;18.8;57
79467;SHT30;68933;49.726;9.226;2023-07-13T05:32:58;18.9;57
79467;SHT30;68933;49.726;9.226;2023-07-13T05:35:11;18.9;57
79467;SHT30;68933;49.726;9.226;2023-07-13T05:37:24;19;57
79467;SHT30;68933;49.726;9.226;2023-07-13T05:39:36;19;57
79467;SHT30;68933;49.726;9.226;2023-07-13T05:41:50;19.1;57
79467;SHT30;68933;49.726;9.226;2023-07-13T05:44:03;19.1;57
79467;SHT30;68933;49.726;9.226;2023-07-13T05:46:16;19.2;57
79467;SHT30;68933;49.726;9.226;2023-07-13T05:48:29;19.2;57
79467;SHT30;68933;49.726;9.226;2023-07-13T05:50:41;19.2;57
79467;SHT30;68933;49.726;9.226;2023-07-13T05:52:54;19.2;57
79467;SHT30;68933;49.726;9.226;2023-07-13T05:55:08;19.3;55
79467;SHT30;68933;49.726;9.226;2023-07-13T05:57:21;19.3;55
79467;SHT30;68933;49.726;9.226;2023-07-13T05:59:34;19.3;55
79467;SHT30;68933;49.726;9.226;2023-07-13T06:01:47;19.4;55
79467;SHT30;68933;49.726;9.226;2023-07-13T06:04:00;19.4;55
79467;SHT30;68933;49.726;9.226;2023-07-13T06:06:13;19.6;54
79467;SHT30;68933;49.726;9.226;2023-07-13T06:08:26;19.6;54
79467;SHT30;68933;49.726;9.226;2023-07-13T06:10:39;19.6;54
79467;SHT30;68933;49.726;9.226;2023-07-13T06:12:52;19.6;55
79467;SHT30;68933;49.726;9.226;2023-07-13T06:15:05;19.6;55
79467;SHT30;68933;49.726;9.226;2023-07-13T06:17:18;19.8;55
79467;SHT30;68933;49.726;9.226;2023-07-13T06:19:31;19.8;55
79467;SHT30;68933;49.726;9.226;2023-07-13T06:21:43;19.8;55
79467;SHT30;68933;49.726;9.226;2023-07-13T06:23:56;20.1;54
79467;SHT30;68933;49.726;9.226;2023-07-13T06:26:10;20.1;54
79467;SHT30;68933;49.726;9.226;2023-07-13T06:28:23;20.4;53
79467;SHT30;68933;49.726;9.226;2023-07-13T06:30:37;20.4;53
79467;SHT30;68933;49.726;9.226;2023-07-13T06:32:49;20.6;51
79467;SHT30;68933;49.726;9.226;2023-07-13T06:35:02;20.6;51
79467;SHT30;68933;49.726;9.226;2023-07-13T06:37:15;20.6;51
79467;SHT30;68933;49.726;9.226;2023-07-13T06:39:28;20.9;50
79467;SHT30;68933;49.726;9.226;2023-07-13T06:41:41;20.9;50
79467;SHT30;68933;49.726;9.226;2023-07-13T06:43:53;21.2;47
79467;SHT30;68933;49.726;9.226;2023-07-13T06:46:07;21.2;47
79467;SHT30;68933;49.726;9.226;2023-07-13T06:48:20;21.2;47
79467;SHT30;68933;49.726;9.226;2023-07-13T06:50:33;21.4;46
79467;SHT30;68933;49.726;9.226;2023-07-13T06:52:46;21.4;46
79467;SHT30;68933;49.726;9.226;2023-07-13T06:54:58;21.5;46
79467;SHT30;68933;49.726;9.226;2023-07-13T06:57:12;21.5;46
79467;SHT30;68933;49.726;9.226;2023-07-13T06:59:24;21.5;46
79467;SHT30;68933;49.726;9.226;2023-07-13T07:01:38;21.7;45
79467;SHT30;68933;49.726;9.226;2023-07-13T07:03:51;21.7;45
79467;SHT30;68933;49.726;9.226;2023-07-13T07:06:07;21.9;45
79467;SHT30;68933;49.726;9.226;2023-07-13T07:08:17;21.9;45
79467;SHT30;68933;49.726;9.226;2023-07-13T07:10:30;22.1;45
79467;SHT30;68933;49.726;9.226;2023-07-13T07:12:43;22.1;45
79467;SHT30;68933;49.726;9.226;2023-07-13T07:14:55;22.1;45
79467;SHT30;68933;49.726;9.226;2023-07-13T07:17:09;22.3;43
79467;SHT30;68933;49.726;9.226;2023-07-13T07:19:22;22.3;43
79467;SHT30;68933;49.726;9.226;2023-07-13T07:21:34;22.5;43
79467;SHT30;68933;49.726;9.226;2023-07-13T07:23:48;22.5;43
79467;SHT30;68933;49.726;9.226;2023-07-13T07:26:01;22.6;42
79467;SHT30;68933;49.726;9.226;2023-07-13T07:28:14;22.6;42
79467;SHT30;68933;49.726;9.226;2023-07-13T07:30:26;22.6;42
79467;SHT30;68933;49.726;9.226;2023-07-13T07:32:39;22.7;42
79467;SHT30;68933;49.726;9.226;2023-07-13T07:34:53;22.7;42
79467;SHT30;68933;49.726;9.226;2023-07-13T07:37:06;22.8;42
79467;SHT30;68933;49.726;9.226;2023-07-13T07:39:18;22.8;42
79467;SHT30;68933;49.726;9.226;2023-07-13T07:41:31;23.1;42
79467;SHT30;68933;49.726;9.226;2023-07-13T07:43:44;23.1;42
79467;SHT30;68933;49.726;9.226;2023-07-13T07:45:58;23.2;41
79467;SHT30;68933;49.726;9.226;2023-07-13T07:48:11;23.2;41
79467;SHT30;68933;49.726;9.226;2023-07-13T07:50:24;23.2;41
79467;SHT30;68933;49.726;9.226;2023-07-13T07:52:37;23.5;41
79467;SHT30;68933;49.726;9.226;2023-07-13T07:54:50;23.5;41
79467;SHT30;68933;49.726;9.226;2023-07-13T07:57:03;23.7;41
79467;SHT30;68933;49.726;9.226;2023-07-13T07:59:16;23.7;41
79467;SHT30;68933;49.726;9.226;2023-07-13T08:01:29;23.9;41
79467;SHT30;68933;49.726;9.226;2023-07-13T08:03:41;23.9;41
79467;SHT30;68933;49.726;9.226;2023-07-13T08:05:55;24.1;39
79467;SHT30;68933;49.726;9.226;2023-07-13T08:08:07;24.1;39
79467;SHT30;68933;49.726;9.226;2023-07-13T08:10:21;24.1;39
79467;SHT30;68933;49.726;9.226;2023-07-13T08:12:34;24.5;39
79467;SHT30;68933;49.726;9.226;2023-07-13T08:14:49;24.5;39
79467;SHT30;68933;49.726;9.226;2023-07-13T08:17:00;24.6;38
79467;SHT30;68933;49.726;9.226;2023-07-13T08:19:13;24.6;38
79467;SHT30;68933;49.726;9.226;2023-07-13T08:21:26;24.8;38
79467;SHT30;68933;49.726;9.226;2023-07-13T08:23:39;24.8;38
79467;SHT30;68933;49.726;9.226;2023-07-13T08:25:52;25.1;37
79467;SHT30;68933;49.726;9.226;2023-07-13T08:28:05;25.1;37
79467;SHT30;68933;49.726;9.226;2023-07-13T08:30:18;25.1;37
79467;SHT30;68933;49.726;9.226;2023-07-13T08:32:31;25.2;38
79467;SHT30;68933;49.726;9.226;2023-07-13T08:34:44;25.2;38
79467;SHT30;68933;49.726;9.226;2023-07-13T08:36:57;25.5;37
79467;SHT30;68933;49.726;9.226;2023-07-13T08:39:10;25.5;37
79467;SHT30;68933;49.726;9.226;2023-07-13T08:41:23;25.6;37
79467;SHT30;68933;49.726;9.226;2023-07-13T08:43:36;25.6;37
79467;SHT30;68933;49.726;9.226;2023-07-13T08:45:49;25.9;35
79467;SHT30;68933;49.726;9.226;2023-07-13T08:48:03;25.9;35
79467;SHT30;68933;49.726;9.226;2023-07-13T08:50:17;25.9;35
79467;SHT30;68933;49.726;9.226;2023-07-13T08:52:29;26.1;35
79467;SHT30;68933;49.726;9.226;2023-07-13T08:54:41;26.1;35
79467;SHT30;68933;49.726;9.226;2023-07-13T08:56:54;26.2;35
79467;SHT30;68933;49.726;9.226;2023-07-13T08:59:09;26.2;35
79467;SHT30;68933;49.726;9.226;2023-07-13T09:01:20;26.3;35
79467;SHT30;68933;49.726;9.226;2023-07-13T09:03:36;26.3;35
79467;SHT30;68933;49.726;9.226;2023-07-13T09:05:47;26.6;35
79467;SHT30;68933;49.726;9.226;2023-07-13T09:08:04;26.6;35
79467;SHT30;68933;49.726;9.226;2023-07-13T09:10:14;26.5;34
79467;SHT30;68933;49.726;9.226;2023-07-13T09:12:27;26.5;34
79467;SHT30;68933;49.726;9.226;2023-07-13T09:14:39;26.5;34
79467;SHT30;68933;49.726;9.226;2023-07-13T09:16:51;26.5;34
79467;SHT30;68933;49.726;9.226;2023-07-13T09:19:04;26.5;34
79467;SHT30;68933;49.726;9.226;2023-07-13T09:21:17;26.9;34
79467;SHT30;68933;49.726;9.226;2023-07-13T09:23:30;26.9;34
79467;SHT30;68933;49.726;9.226;2023-07-13T09:25:43;26.9;34
79467;SHT30;68933;49.726;9.226;2023-07-13T09:27:57;27;34
79467;SHT30;68933;49.726;9.226;2023-07-13T09:30:17;27;34
79467;SHT30;68933;49.726;9.226;2023-07-13T09:32:22;27.2;34
79467;SHT30;68933;49.726;9.226;2023-07-13T09:34:35;27.2;34
79467;SHT30;68933;49.726;9.226;2023-07-13T09:36:47;27.5;34
79467;SHT30;68933;49.726;9.226;2023-07-13T09:39:02;27.5;34
79467;SHT30;68933;49.726;9.226;2023-07-13T09:41:15;27.5;34
79467;SHT30;68933;49.726;9.226;2023-07-13T09:43:27;27.8;33
79467;SHT30;68933;49.726;9.226;2023-07-13T09:45:39;27.8;33
79467;SHT30;68933;49.726;9.226;2023-07-13T09:47:58;27.9;33
79467;SHT30;68933;49.726;9.226;2023-07-13T09:50:06;27.9;33
79467;SHT30;68933;49.726;9.226;2023-07-13T09:52:19;27.9;33
79467;SHT30;68933;49.726;9.226;2023-07-13T09:54:33;28.2;33
79467;SHT30;68933;49.726;9.226;2023-07-13T09:56:45;28.2;33
79467;SHT30;68933;49.726;9.226;2023-07-13T09:58:58;28.2;31
79467;SHT30;68933;49.726;9.226;2023-07-13T10:01:11;28.2;31
79467;SHT30;68933;49.726;9.226;2023-07-13T10:03:24;28;31
79467;SHT30;68933;49.726;9.226;2023-07-13T10:05:37;28;31
79467;SHT30;68933;49.726;9.226;2023-07-13T10:07:49;28;31
79467;SHT30;68933;49.726;9.226;2023-07-13T10:10:03;27.7;31
79467;SHT30;68933;49.726;9.226;2023-07-13T10:12:16;27.7;31
79467;SHT30;68933;49.726;9.226;2023-07-13T10:14:28;27.6;31
79467;SHT30;68933;49.726;9.226;2023-07-13T10:16:42;27.6;31
79467;SHT30;68933;49.726;9.226;2023-07-13T10:18:55;27.3;33
79467;SHT30;68933;49.726;9.226;2023-07-13T10:21:10;27.3;33
79467;SHT30;68933;49.726;9.226;2023-07-13T10:23:21;27.3;33
79467;SHT30;68933;49.726;9.226;2023-07-13T10:25:34;27.2;33
79467;SHT30;68933;49.726;9.226;2023-07-13T10:27:46;27.2;33
79467;SHT30;68933;49.726;9.226;2023-07-13T10:30:00;27.2;33
79467;SHT30;68933;49.726;9.226;2023-07-13T10:32:12;27.2;33
79467;SHT30;68933;49.726;9.226;2023-07-13T10:34:26;27.2;33
79467;SHT30;68933;49.726;9.226;2023-07-13T10:36:39;27.7;33
79467;SHT30;68933;49.726;9.226;2023-07-13T10:38:51;27.7;33
79467;SHT30;68933;49.726;9.226;2023-07-13T10:41:05;28.4;33
79467;SHT30;68933;49.726;9.226;2023-07-13T10:43:18;28.4;33
79467;SHT30;68933;49.726;9.226;2023-07-13T10:45:32;28.7;31
79467;SHT30;68933;49.726;9.226;2023-07-13T10:47:44;28.7;31
79467;SHT30;68933;49.726;9.226;2023-07-13T10:49:57;28.7;31
79467;SHT30;68933;49.726;9.226;2023-07-13T10:52:35;28.6;31
79467;SHT30;68933;49.726;9.226;2023-07-13T10:54:26;28.6;31
79467;SHT30;68933;49.726;9.226;2023-07-13T10:56:36;28.3;31
79467;SHT30;68933;49.726;9.226;2023-07-13T10:58:50;28.3;31
79467;SHT30;68933;49.726;9.226;2023-07-13T11:01:03;28;31
79467;SHT30;68933;49.726;9.226;2023-07-13T11:03:16;28;31
79467;SHT30;68933;49.726;9.226;2023-07-13T11:05:29;28;31
79467;SHT30;68933;49.726;9.226;2023-07-13T11:07:51;28;31
79467;SHT30;68933;49.726;9.226;2023-07-13T11:09:54;28;31
79467;SHT30;68933;49.726;9.226;2023-07-13T11:12:08;28;31
79467;SHT30;68933;49.726;9.226;2023-07-13T11:14:28;28;31
79467;SHT30;68933;49.726;9.226;2023-07-13T11:16:36;28.4;31
79467;SHT30;68933;49.726;9.226;2023-07-13T11:18:47;28.4;31
79467;SHT30;68933;49.726;9.226;2023-07-13T11:21:12;28.6;31
79467;SHT30;68933;49.726;9.226;2023-07-13T11:23:21;28.6;31
79467;SHT30;68933;49.726;9.226;2023-07-13T11:25:26;28.6;31
79467;SHT30;68933;49.726;9.226;2023-07-13T11:27:39;28.5;31
79467;SHT30;68933;49.726;9.226;2023-07-13T11:29:51;28.5;31
79467;SHT30;68933;49.726;9.226;2023-07-13T11:32:20;28.4;30
79467;SHT30;68933;49.726;9.226;2023-07-13T11:34:18;28.4;30
79467;SHT30;68933;49.726;9.226;2023-07-13T11:36:31;28.5;30
79467;SHT30;68933;49.726;9.226;2023-07-13T11:38:43;28.5;30
79467;SHT30;68933;49.726;9.226;2023-07-13T11:40:55;29.1;30
79467;SHT30;68933;49.726;9.226;2023-07-13T11:43:11;29.1;30
79467;SHT30;68933;49.726;9.226;2023-07-13T11:45:22;29.1;30
79467;SHT30;68933;49.726;9.226;2023-07-13T11:47:34;29.2;30
79467;SHT30;68933;49.726;9.226;2023-07-13T11:49:48;29.2;30
79467;SHT30;68933;49.726;9.226;2023-07-13T11:52:00;28.9;30
79467;SHT30;68933;49.726;9.226;2023-07-13T11:54:17;28.9;30
79467;SHT30;68933;49.726;9.226;2023-07-13T11:56:26;28.8;30
79467;SHT30;68933;49.726;9.226;2023-07-13T11:58:40;28.8;30
79467;SHT30;68933;49.726;9.226;2023-07-13T12:00:52;28.8;30
79467;SHT30;68933;49.726;9.226;2023-07-13T12:03:05;28.8;30
79467;SHT30;68933;49.726;9.226;2023-07-13T12:05:19;28.7;30
79467;SHT30;68933;49.726;9.226;2023-07-13T12:07:32;28.7;30
79467;SHT30;68933;49.726;9.226;2023-07-13T12:09:45;28.7;30
79467;SHT30;68933;49.726;9.226;2023-07-13T12:11:57;28.8;30
79467;SHT30;68933;49.726;9.226;2023-07-13T12:14:13;28.8;30
79467;SHT30;68933;49.726;9.226;2023-07-13T12:16:25;29.1;29
79467;SHT30;68933;49.726;9.226;2023-07-13T12:18:37;29.1;29
79467;SHT30;68933;49.726;9.226;2023-07-13T12:20:50;29.1;29
79467;SHT30;68933;49.726;9.226;2023-07-13T12:23:04;29.1;29
79467;SHT30;68933;49.726;9.226;2023-07-13T12:25:16;29.1;29
79467;SHT30;68933;49.726;9.226;2023-07-13T12:27:28;29.1;29
79467;SHT30;68933;49.726;9.226;2023-07-13T12:29:48;29.1;29
79467;SHT30;68933;49.726;9.226;2023-07-13T12:31:54;28.9;29
79467;SHT30;68933;49.726;9.226;2023-07-13T12:34:08;28.9;29
79467;SHT30;68933;49.726;9.226;2023-07-13T12:36:21;28.8;30
79467;SHT30;68933;49.726;9.226;2023-07-13T12:38:33;28.8;30
79467;SHT30;68933;49.726;9.226;2023-07-13T12:40:48;29;29
79467;SHT30;68933;49.726;9.226;2023-07-13T12:43:00;29;29
79467;SHT30;68933;49.726;9.226;2023-07-13T12:45:18;29;29
79467;SHT30;68933;49.726;9.226;2023-07-13T12:47:26;29.8;29
79467;SHT30;68933;49.726;9.226;2023-07-13T12:49:40;29.8;29
79467;SHT30;68933;49.726;9.226;2023-07-13T12:51:55;30.3;27
79467;SHT30;68933;49.726;9.226;2023-07-13T12:54:06;30.3;27
79467;SHT30;68933;49.726;9.226;2023-07-13T12:56:19;30.3;27
79467;SHT30;68933;49.726;9.226;2023-07-13T12:58:32;30;26
79467;SHT30;68933;49.726;9.226;2023-07-13T13:00:48;30;26
79467;SHT30;68933;49.726;9.226;2023-07-13T13:02:57;30.3;27
79467;SHT30;68933;49.726;9.226;2023-07-13T13:05:09;30.3;27
79467;SHT30;68933;49.726;9.226;2023-07-13T13:07:23;30.3;27
79467;SHT30;68933;49.726;9.226;2023-07-13T13:09:36;30.4;27
79467;SHT30;68933;49.726;9.226;2023-07-13T13:11:48;30.4;27
79467;SHT30;68933;49.726;9.226;2023-07-13T13:14:01;30.2;27
79467;SHT30;68933;49.726;9.226;2023-07-13T13:16:17;30.2;27
79467;SHT30;68933;49.726;9.226;2023-07-13T13:18:28;30.3;27
79467;SHT30;68933;49.726;9.226;2023-07-13T13:20:41;30.3;27
79467;SHT30;68933;49.726;9.226;2023-07-13T13:22:54;30.3;27
79467;SHT30;68933;49.726;9.226;2023-07-13T13:25:07;30.6;27
79467;SHT30;68933;49.726;9.226;2023-07-13T13:27:20;30.6;27
79467;SHT30;68933;49.726;9.226;2023-07-13T13:29:33;31.1;26
79467;SHT30;68933;49.726;9.226;2023-07-13T13:31:46;31.1;26
79467;SHT30;68933;49.726;9.226;2023-07-13T13:33:58;31.2;26
79467;SHT30;68933;49.726;9.226;2023-07-13T13:36:13;31.2;26
79467;SHT30;68933;49.726;9.226;2023-07-13T13:38:25;31.2;26
79467;SHT30;68933;49.726;9.226;2023-07-13T13:40:37;31;26
79467;SHT30;68933;49.726;9.226;2023-07-13T13:42:51;31;26
79467;SHT30;68933;49.726;9.226;2023-07-13T13:45:04;30.7;25
79467;SHT30;68933;49.726;9.226;2023-07-13T13:47:20;30.7;25
79467;SHT30;68933;49.726;9.226;2023-07-13T13:49:30;30.2;26
79467;SHT30;68933;49.726;9.226;2023-07-13T13:51:43;30.2;26
79467;SHT30;68933;49.726;9.226;2023-07-13T13:53:56;30.2;26
79467;SHT30;68933;49.726;9.226;2023-07-13T13:56:09;29.8;27
79467;SHT30;68933;49.726;9.226;2023-07-13T13:58:22;29.8;27
79467;SHT30;68933;49.726;9.226;2023-07-13T14:00:35;29.6;27
79467;SHT30;68933;49.726;9.226;2023-07-13T14:02:48;29.6;27
79467;SHT30;68933;49.726;9.226;2023-07-13T14:05:01;29.3;27
79467;SHT30;68933;49.726;9.226;2023-07-13T14:07:14;29.3;27
79467;SHT30;68933;49.726;9.226;2023-07-13T14:09:27;29.3;27
79467;SHT30;68933;49.726;9.226;2023-07-13T14:11:40;29;28
79467;SHT30;68933;49.726;9.226;2023-07-13T14:13:54;29;28
79467;SHT30;68933;49.726;9.226;2023-07-13T14:16:08;28.9;28
79467;SHT30;68933;49.726;9.226;2023-07-13T14:18:19;28.9;28
79467;SHT30;68933;49.726;9.226;2023-07-13T14:20:32;28.8;29
79467;SHT30;68933;49.726;9.226;2023-07-13T14:22:45;28.8;29
79467;SHT30;68933;49.726;9.226;2023-07-13T14:24:58;28.8;29
79467;SHT30;68933;49.726;9.226;2023-07-13T14:27:11;28.8;29
79467;SHT30;68933;49.726;9.226;2023-07-13T14:29:24;28.8;29
79467;SHT30;68933;49.726;9.226;2023-07-13T14:31:37;28.8;29
79467;SHT30;68933;49.726;9.226;2023-07-13T14:33:50;28.8;29
79467;SHT30;68933;49.726;9.226;2023-07-13T14:36:03;28.7;29
79467;SHT30;68933;49.726;9.226;2023-07-13T14:38:16;28.7;29
79467;SHT30;68933;49.726;9.226;2023-07-13T14:40:29;28.6;29
79467;SHT30;68933;49.726;9.226;2023-07-13T14:42:42;28.6;29
79467;SHT30;68933;49.726;9.226;2023-07-13T14:44:55;28.6;30
79467;SHT30;68933;49.726;9.226;2023-07-13T14:47:08;28.6;30
79467;SHT30;68933;49.726;9.226;2023-07-13T14:49:23;28.8;30
79467;SHT30;68933;49.726;9.226;2023-07-13T14:51:33;28.8;30
79467;SHT30;68933;49.726;9.226;2023-07-13T14:53:47;28.8;30
79467;SHT30;68933;49.726;9.226;2023-07-13T14:55:59;28.9;29
79467;SHT30;68933;49.726;9.226;2023-07-13T14:58:13;28.9;29
79467;SHT30;68933;49.726;9.226;2023-07-13T15:00:26;29.3;29